Time;durP1;ratioP1;P1;durP2;ratioP2;P2;SDS_P1;SDS_P2;PMS_P1;PMS_P2;Temp;Humidity;BMP_temperature;BMP_pressure;BME280_temperature;BME280_humidity;BME280_pressure;Samples;Min_cycle;Max_cycle;Signal;HPM_P1;HPM_P2
2022/06/04 00:01:35;;;;;;;20.88;3.85;;;;;;;;;;5029539;28;20040;-75
2022/06/04 00:04:01;;;;;;;10.25;3.38;;;;;;;;;;5019242;28;20031;-75
2022/06/04 00:06:27;;;;;;;13.48;3.33;;;;;;;;;;5027039;28;20037;-75
2022/06/04 00:08:53;;;;;;;16.27;3.63;;;;;;;;;;5029661;28;20776;-75
2022/06/04 00:16:48;;;;;;;16.38;2.85;;;;;;;;;;5028019;28;20044;-75
2022/06/04 00:19:14;;;;;;;13.27;3.10;;;;;;;;;;5015336;28;20037;-74
2022/06/04 00:21:40;;;;;;;13.82;2.45;;;;;;;;;;5024985;28;20459;-75
2022/06/04 00:24:06;;;;;;;13.82;3.42;;;;;;;;;;5025232;28;20071;-75
2022/06/04 00:26:33;;;;;;;12.95;3.25;;;;;;;;;;5019161;28;20069;-75
2022/06/04 00:28:59;;;;;;;11.50;3.30;;;;;;;;;;5028570;28;20035;-75
2022/06/04 00:31:25;;;;;;;11.15;2.70;;;;;;;;;;5022725;28;20073;-75
2022/06/04 00:33:51;;;;;;;12.63;3.50;;;;;;;;;;5019889;28;20025;-75
2022/06/04 00:36:17;;;;;;;14.02;2.90;;;;;;;;;;5016047;28;20077;-75
2022/06/04 00:38:45;;;;;;;12.75;2.80;;;;;;;;;;5023009;28;20036;-75
2022/06/04 00:41:24;;;;;;;21.15;4.05;;;;;;;;;;5030236;28;20029;-75
2022/06/04 00:44:01;;;;;;;16.48;3.67;;;;;;;;;;5029788;28;20034;-75
2022/06/04 00:46:57;;;;;;;11.23;3.75;;;;;;;;;;5029182;28;20041;-75
2022/06/04 00:49:23;;;;;;;9.82;3.05;;;;;;;;;;5010640;28;20103;-75
2022/06/04 00:51:50;;;;;;;14.50;3.55;;;;;;;;;;5010124;28;20029;-75
2022/06/04 00:54:16;;;;;;;18.42;4.55;;;;;;;;;;5014599;28;20493;-75
2022/06/04 00:56:42;;;;;;;12.45;3.80;;;;;;;;;;5013336;28;20073;-75
2022/06/04 00:59:34;;;;;;;15.07;3.42;;;;;;;;;;5024574;28;20050;-75
2022/06/04 01:02:12;;;;;;;14.85;4.18;;;;;;;;;;5004844;28;20522;-75
2022/06/04 01:04:50;;;;;;;15.57;3.90;;;;;;;;;;5023092;28;20052;-75
2022/06/04 01:07:18;;;;;;;17.52;4.20;;;;;;;;;;5019372;28;20040;-75
2022/06/04 01:10:07;;;;;;;18.98;3.15;;;;;;;;;;5022962;28;20030;-75
2022/06/04 01:12:33;;;;;;;13.30;3.30;;;;;;;;;;5017994;28;20053;-75
2022/06/04 01:15:05;;;;;;;14.93;3.58;;;;;;;;;;5022438;28;20034;-75
2022/06/04 01:17:31;;;;;;;13.25;3.38;;;;;;;;;;5020116;28;20122;-75
2022/06/04 01:20:03;;;;;;;13.38;3.42;;;;;;;;;;5031835;28;20451;-75
2022/06/04 01:22:47;;;;;;;16.73;3.50;;;;;;;;;;5020749;28;20030;-75
2022/06/04 01:25:16;;;;;;;13.05;3.10;;;;;;;;;;5015716;28;20038;-75
2022/06/04 01:28:00;;;;;;;16.80;3.63;;;;;;;;;;5014948;28;20471;-76
2022/06/04 01:30:30;;;;;;;15.07;3.45;;;;;;;;;;5027175;28;20067;-75
2022/06/04 01:32:59;;;;;;;13.07;3.08;;;;;;;;;;5017662;28;20041;-75
2022/06/04 01:35:44;;;;;;;18.23;3.53;;;;;;;;;;5032166;28;20044;-75
2022/06/04 01:38:17;;;;;;;18.17;4.00;;;;;;;;;;5015767;28;20030;-75
2022/06/04 01:41:04;;;;;;;10.75;3.42;;;;;;;;;;5026178;28;20418;-75
2022/06/04 01:43:36;;;;;;;15.77;3.20;;;;;;;;;;5027229;28;20032;-75
2022/06/04 01:46:02;;;;;;;;;;;;;;;;;;5023549;28;20038;-75
2022/06/04 01:48:29;;;;;;;14.68;3.55;;;;;;;;;;5026970;28;19959;-75
2022/06/04 01:51:00;;;;;;;9.45;3.50;;;;;;;;;;5016131;28;20096;-75
2022/06/04 01:53:30;;;;;;;12.87;4.33;;;;;;;;;;5014312;28;20044;-75
2022/06/04 01:55:58;;;;;;;15.30;3.42;;;;;;;;;;5012557;28;20083;-75
2022/06/04 01:58:27;;;;;;;14.50;3.42;;;;;;;;;;5021125;28;20033;-75
2022/06/04 02:00:58;;;;;;;20.08;3.97;;;;;;;;;;5026001;28;20026;-75
2022/06/04 02:03:24;;;;;;;15.27;3.40;;;;;;;;;;5029310;28;20379;-75
2022/06/04 02:05:53;;;;;;;16.67;3.35;;;;;;;;;;5032206;28;20036;-75
2022/06/04 02:08:23;;;;;;;12.88;2.97;;;;;;;;;;5020481;28;20038;-75
2022/06/04 02:10:55;;;;;;;12.48;3.00;;;;;;;;;;5021148;28;20030;-75
2022/06/04 02:13:21;;;;;;;;;;;;;;;;;;5026414;28;20062;-75
2022/06/04 02:16:13;;;;;;;16.58;3.33;;;;;;;;;;5022475;28;19960;-75
2022/06/04 02:18:39;;;;;;;12.48;3.10;;;;;;;;;;5017469;28;20049;-75
2022/06/04 02:21:05;;;;;;;12.55;3.65;;;;;;;;;;5020990;28;20030;-75
2022/06/04 02:23:33;;;;;;;12.55;3.40;;;;;;;;;;5026949;28;20147;-75
2022/06/04 02:26:00;;;;;;;15.40;3.80;;;;;;;;;;5020334;28;20041;-75
2022/06/04 02:28:26;;;;;;;13.85;3.00;;;;;;;;;;5018951;28;20033;-75
2022/06/04 02:30:58;;;;;;;14.45;3.58;;;;;;;;;;5028098;28;20053;-75
2022/06/04 02:33:32;;;;;;;16.92;3.63;;;;;;;;;;5019511;28;20450;-75
2022/06/04 02:36:11;;;;;;;12.45;3.65;;;;;;;;;;5025997;28;20037;-75
2022/06/04 02:38:44;;;;;;;16.83;3.38;;;;;;;;;;5013686;28;20048;-75
2022/06/04 02:41:16;;;;;;;15.52;3.50;;;;;;;;;;5013403;28;20063;-75
2022/06/04 02:43:54;;;;;;;15.48;3.42;;;;;;;;;;5014089;28;21105;-75
2022/06/04 02:46:20;;;;;;;14.90;3.40;;;;;;;;;;5029926;28;20537;-75
2022/06/04 02:48:50;;;;;;;22.05;4.63;;;;;;;;;;5028477;28;20046;-75
2022/06/04 02:51:21;;;;;;;14.02;3.65;;;;;;;;;;5028250;28;20041;-75
2022/06/04 02:53:48;;;;;;;7.68;3.28;;;;;;;;;;5020697;28;20810;-75
2022/06/04 02:56:17;;;;;;;15.05;3.33;;;;;;;;;;5039171;28;20037;-75
2022/06/04 02:58:44;;;;;;;13.70;3.50;;;;;;;;;;5024504;28;20037;-75
2022/06/04 03:01:11;;;;;;;19.90;3.92;;;;;;;;;;5028447;28;20045;-75
2022/06/04 03:03:38;;;;;;;12.80;3.75;;;;;;;;;;5024296;28;20033;-75
2022/06/04 03:06:06;;;;;;;19.50;3.47;;;;;;;;;;5027280;28;20041;-75
2022/06/04 03:08:36;;;;;;;12.80;4.10;;;;;;;;;;5024274;28;20086;-75
2022/06/04 03:11:02;;;;;;;14.65;3.42;;;;;;;;;;5027397;28;20816;-75
2022/06/04 03:13:29;;;;;;;15.27;3.90;;;;;;;;;;5025120;28;20121;-75
2022/06/04 03:15:55;;;;;;;14.55;3.47;;;;;;;;;;5021236;28;20788;-75
2022/06/04 03:18:21;;;;;;;13.07;3.25;;;;;;;;;;5030941;28;20063;-75
2022/06/04 03:20:47;;;;;;;11.00;3.05;;;;;;;;;;5030088;28;20757;-75
2022/06/04 03:23:14;;;;;;;17.17;3.55;;;;;;;;;;5015874;28;20047;-75
2022/06/04 03:25:40;;;;;;;15.57;3.65;;;;;;;;;;5021175;28;20572;-75
2022/06/04 03:28:07;;;;;;;14.45;3.17;;;;;;;;;;5010995;28;20076;-75
2022/06/04 03:30:34;;;;;;;15.27;3.03;;;;;;;;;;5023449;28;20044;-75
2022/06/04 03:33:00;;;;;;;13.43;2.65;;;;;;;;;;5020023;28;20030;-75
2022/06/04 03:35:26;;;;;;;16.38;3.67;;;;;;;;;;5011790;28;20041;-75
2022/06/04 03:37:52;;;;;;;13.82;3.72;;;;;;;;;;5022409;28;20022;-75
2022/06/04 03:40:19;;;;;;;13.10;2.95;;;;;;;;;;5028584;28;20041;-75
2022/06/04 03:42:45;;;;;;;13.13;2.50;;;;;;;;;;5018443;28;20048;-75
2022/06/04 03:45:12;;;;;;;10.90;2.75;;;;;;;;;;5022397;28;20041;-75
2022/06/04 03:47:38;;;;;;;12.63;3.42;;;;;;;;;;5031224;28;20025;-76
2022/06/04 03:50:10;;;;;;;9.73;2.63;;;;;;;;;;5028881;28;20099;-75
2022/06/04 03:52:36;;;;;;;9.88;2.97;;;;;;;;;;5018789;28;20525;-75
2022/06/04 03:55:02;;;;;;;11.30;2.72;;;;;;;;;;5030791;28;20033;-75
2022/06/04 03:57:45;;;;;;;20.30;3.40;;;;;;;;;;5037946;28;20397;-75
2022/06/04 04:00:19;;;;;;;11.95;2.70;;;;;;;;;;5024638;28;20493;-75
2022/06/04 04:02:47;;;;;;;18.15;4.13;;;;;;;;;;5031086;28;20029;-75
2022/06/04 04:05:15;;;;;;;15.75;3.63;;;;;;;;;;5024797;28;20498;-75
2022/06/04 04:07:41;;;;;;;15.25;3.78;;;;;;;;;;5029709;28;20029;-75
2022/06/04 04:10:08;;;;;;;16.35;3.45;;;;;;;;;;5026008;28;20113;-75
2022/06/04 04:12:34;;;;;;;11.40;3.38;;;;;;;;;;5021712;28;20046;-75
2022/06/04 04:15:00;;;;;;;13.85;3.53;;;;;;;;;;5028352;28;20029;-75
2022/06/04 04:17:26;;;;;;;14.15;3.15;;;;;;;;;;5023925;28;20038;-75
2022/06/04 04:19:53;;;;;;;15.77;3.40;;;;;;;;;;5026540;28;20030;-75
2022/06/04 04:22:19;;;;;;;14.00;3.95;;;;;;;;;;5021143;28;20103;-75
2022/06/04 04:24:46;;;;;;;13.40;3.22;;;;;;;;;;5030847;28;20047;-75
2022/06/04 04:27:12;;;;;;;11.52;3.28;;;;;;;;;;5012766;28;20113;-76
2022/06/04 04:29:38;;;;;;;15.40;4.65;;;;;;;;;;5030009;28;20113;-75
2022/06/04 04:32:05;;;;;;;18.75;4.15;;;;;;;;;;5030526;28;20042;-75
2022/06/04 04:34:31;;;;;;;12.50;3.95;;;;;;;;;;5022694;28;20026;-75
2022/06/04 04:36:57;;;;;;;14.48;4.30;;;;;;;;;;5025402;28;20072;-75
2022/06/04 04:39:23;;;;;;;12.68;4.03;;;;;;;;;;5022481;28;20029;-75
2022/06/04 04:41:49;;;;;;;13.57;4.20;;;;;;;;;;5026840;28;20096;-75
2022/06/04 04:44:15;;;;;;;13.13;3.65;;;;;;;;;;5021275;28;20540;-75
2022/06/04 04:46:41;;;;;;;13.27;3.92;;;;;;;;;;5024237;28;20026;-75
2022/06/04 04:49:07;;;;;;;8.98;3.53;;;;;;;;;;5031024;28;20123;-75
2022/06/04 04:51:34;;;;;;;20.38;4.60;;;;;;;;;;5019253;28;20033;-75
2022/06/04 04:54:00;;;;;;;16.23;4.32;;;;;;;;;;5018991;28;20131;-75
2022/06/04 04:56:26;;;;;;;13.05;3.85;;;;;;;;;;5019781;28;20041;-75
2022/06/04 04:58:53;;;;;;;14.07;4.25;;;;;;;;;;5045494;28;20037;-75
2022/06/04 05:01:20;;;;;;;17.02;4.47;;;;;;;;;;5030613;28;20079;-75
2022/06/04 05:03:46;;;;;;;14.07;4.95;;;;;;;;;;5026964;28;20075;-75
2022/06/04 05:06:13;;;;;;;16.25;4.20;;;;;;;;;;5033400;28;20112;-75
2022/06/04 05:08:39;;;;;;;13.52;4.15;;;;;;;;;;5019888;28;20432;-75
2022/06/04 05:11:12;;;;;;;13.57;5.10;;;;;;;;;;5032151;28;20041;-75
2022/06/04 05:13:38;;;;;;;16.30;4.30;;;;;;;;;;5025776;28;20041;-75
2022/06/04 05:16:05;;;;;;;13.13;3.45;;;;;;;;;;5018135;28;20041;-75
2022/06/04 05:18:31;;;;;;;18.10;3.85;;;;;;;;;;5034302;28;20371;-75
2022/06/04 05:21:26;;;;;;;15.73;3.83;;;;;;;;;;5033805;28;20161;-75
2022/06/04 05:23:55;;;;;;;17.30;4.45;;;;;;;;;;5023061;28;20029;-75
2022/06/04 05:26:23;;;;;;;14.05;3.80;;;;;;;;;;5017190;28;20116;-75
2022/06/04 05:28:49;;;;;;;18.23;3.45;;;;;;;;;;5023775;28;20045;-76
2022/06/04 05:31:15;;;;;;;9.52;3.15;;;;;;;;;;5025373;28;20376;-75
2022/06/04 05:33:41;;;;;;;13.02;3.92;;;;;;;;;;5025797;28;20034;-75
2022/06/04 05:36:07;;;;;;;16.35;3.65;;;;;;;;;;5015375;28;20537;-75
2022/06/04 05:38:37;;;;;;;13.15;3.42;;;;;;;;;;5024189;28;20025;-75
2022/06/04 05:41:04;;;;;;;15.02;3.72;;;;;;;;;;5024438;28;20066;-75
2022/06/04 05:43:30;;;;;;;16.75;3.45;;;;;;;;;;5020768;28;20038;-75
2022/06/04 05:46:00;;;;;;;15.65;3.33;;;;;;;;;;5026498;28;20040;-76
2022/06/04 05:48:26;;;;;;;17.25;3.45;;;;;;;;;;5031236;28;20777;-75
2022/06/04 05:50:53;;;;;;;15.73;3.83;;;;;;;;;;5033840;28;20029;-75
2022/06/04 05:53:19;;;;;;;8.13;3.03;;;;;;;;;;5031173;28;20041;-76
2022/06/04 05:55:45;;;;;;;16.27;3.30;;;;;;;;;;5026051;28;20382;-75
2022/06/04 05:58:11;;;;;;;14.20;3.33;;;;;;;;;;5034517;28;20033;-75
2022/06/04 06:00:37;;;;;;;13.02;3.28;;;;;;;;;;5032933;28;20037;-76
2022/06/04 06:03:03;;;;;;;16.67;3.72;;;;;;;;;;5025739;28;20029;-75
2022/06/04 06:05:31;;;;;;;19.58;4.65;;;;;;;;;;5031167;28;20140;-75
2022/06/04 06:07:58;;;;;;;10.73;3.13;;;;;;;;;;5033074;28;20534;-76
2022/06/04 06:10:24;;;;;;;12.02;2.90;;;;;;;;;;5020333;28;20037;-75
2022/06/04 06:12:50;;;;;;;12.63;3.15;;;;;;;;;;5025555;28;20026;-76
2022/06/04 06:15:16;;;;;;;18.48;3.28;;;;;;;;;;5033911;28;20037;-75
2022/06/04 06:17:42;;;;;;;10.20;3.08;;;;;;;;;;5022145;28;20104;-75
2022/06/04 06:20:09;;;;;;;16.77;3.60;;;;;;;;;;5032540;28;20140;-76
2022/06/04 06:22:36;;;;;;;14.50;3.03;;;;;;;;;;5025638;28;20103;-76
2022/06/04 06:25:06;;;;;;;11.63;3.08;;;;;;;;;;5023770;28;20092;-75
2022/06/04 06:27:33;;;;;;;14.88;4.20;;;;;;;;;;5026926;28;20493;-76
2022/06/04 06:29:59;;;;;;;20.40;3.58;;;;;;;;;;5034365;28;20459;-75
2022/06/04 06:32:26;;;;;;;11.98;3.15;;;;;;;;;;5042960;28;20030;-76
2022/06/04 06:34:52;;;;;;;12.88;3.22;;;;;;;;;;5023214;28;20083;-75
2022/06/04 06:37:18;;;;;;;13.23;3.50;;;;;;;;;;5027047;28;20075;-75
2022/06/04 06:39:44;;;;;;;16.42;3.50;;;;;;;;;;5025955;28;20033;-75
2022/06/04 06:42:10;;;;;;;12.65;2.90;;;;;;;;;;5028400;28;20419;-76
2022/06/04 06:44:36;;;;;;;12.00;2.67;;;;;;;;;;5025327;28;20038;-75
2022/06/04 06:47:03;;;;;;;12.27;2.90;;;;;;;;;;5025973;28;20080;-75
2022/06/04 06:49:30;;;;;;;9.98;3.00;;;;;;;;;;5032500;28;20045;-75
2022/06/04 06:51:57;;;;;;;15.75;3.25;;;;;;;;;;5030456;28;20033;-75
2022/06/04 06:54:24;;;;;;;12.43;3.13;;;;;;;;;;5026431;28;20033;-75
2022/06/04 06:56:52;;;;;;;14.35;2.95;;;;;;;;;;5019068;28;20042;-75
2022/06/04 06:59:23;;;;;;;15.40;3.75;;;;;;;;;;5026551;28;20135;-76
2022/06/04 07:01:50;;;;;;;16.17;3.45;;;;;;;;;;5028853;28;20029;-76
2022/06/04 07:04:16;;;;;;;14.23;3.00;;;;;;;;;;5024486;28;20463;-75
2022/06/04 07:06:43;;;;;;;13.07;2.85;;;;;;;;;;5026041;28;20099;-75
2022/06/04 07:09:17;;;;;;;21.73;3.08;;;;;;;;;;5036273;28;20020;-76
2022/06/04 07:11:43;;;;;;;6.57;1.90;;;;;;;;;;5025050;28;20042;-76
2022/06/04 07:14:09;;;;;;;11.65;2.70;;;;;;;;;;5028121;28;20033;-76
2022/06/04 07:16:35;;;;;;;14.05;3.13;;;;;;;;;;5022050;28;20162;-76
2022/06/04 07:19:02;;;;;;;12.60;2.60;;;;;;;;;;5019650;28;20846;-75
2022/06/04 07:21:28;;;;;;;16.17;3.58;;;;;;;;;;5033141;28;20033;-76
2022/06/04 07:23:54;;;;;;;14.77;2.40;;;;;;;;;;5024918;28;20041;-76
2022/06/04 07:26:21;;;;;;;19.15;2.85;;;;;;;;;;5024264;28;20468;-76
2022/06/04 07:28:47;;;;;;;11.65;2.92;;;;;;;;;;5033233;28;20100;-76
2022/06/04 07:31:15;;;;;;;13.82;3.08;;;;;;;;;;5031888;28;20034;-75
2022/06/04 07:33:45;;;;;;;12.25;3.00;;;;;;;;;;5028586;28;20105;-76
2022/06/04 07:36:19;;;;;;;17.48;3.38;;;;;;;;;;5031006;28;20033;-76
2022/06/04 07:38:46;;;;;;;14.57;3.30;;;;;;;;;;5019860;28;20216;-76
2022/06/04 07:41:22;;;;;;;12.02;3.30;;;;;;;;;;5032302;28;20033;-76
2022/06/04 07:43:49;;;;;;;16.85;2.88;;;;;;;;;;5028179;28;20028;-75
2022/06/04 07:46:15;;;;;;;15.85;2.50;;;;;;;;;;5032366;28;20040;-76
2022/06/04 07:48:41;;;;;;;14.38;2.75;;;;;;;;;;5031997;28;20540;-76
2022/06/04 07:51:07;;;;;;;13.63;2.53;;;;;;;;;;5021901;28;20475;-75
2022/06/04 07:53:34;;;;;;;9.68;2.53;;;;;;;;;;5024793;28;20030;-76
2022/06/04 07:56:04;;;;;;;10.27;2.65;;;;;;;;;;5030699;28;20055;-76
2022/06/04 07:58:30;;;;;;;10.90;2.40;;;;;;;;;;5031171;28;20030;-76
2022/06/04 08:00:56;;;;;;;13.80;2.50;;;;;;;;;;5031636;28;20383;-76
2022/06/04 08:03:22;;;;;;;14.73;3.03;;;;;;;;;;5024293;28;20041;-76
2022/06/04 08:05:50;;;;;;;14.25;2.95;;;;;;;;;;5023729;28;20471;-76
2022/06/04 08:08:17;;;;;;;12.88;2.70;;;;;;;;;;5023432;28;20041;-75
2022/06/04 08:10:46;;;;;;;7.47;2.22;;;;;;;;;;5025243;28;20072;-76
2022/06/04 08:15:45;;;;;;;12.05;2.65;;;;;;;;;;5031822;28;20120;-76
2022/06/04 08:18:11;;;;;;;14.40;3.28;;;;;;;;;;5032048;28;20033;-76
2022/06/04 08:20:42;;;;;;;12.13;2.50;;;;;;;;;;5031757;28;20026;-76
2022/06/04 08:23:09;;;;;;;10.63;2.45;;;;;;;;;;5031281;28;20089;-76
2022/06/04 08:25:45;;;;;;;14.70;2.70;;;;;;;;;;5030889;28;20041;-76
2022/06/04 08:28:11;;;;;;;14.02;2.90;;;;;;;;;;5032945;28;20375;-76
2022/06/04 08:30:37;;;;;;;15.23;2.88;;;;;;;;;;5035980;28;20037;-76
2022/06/04 08:33:03;;;;;;;12.13;2.78;;;;;;;;;;5031901;28;20033;-76
2022/06/04 08:35:29;;;;;;;11.88;2.67;;;;;;;;;;5033523;28;20026;-76
2022/06/04 08:37:55;;;;;;;14.07;2.83;;;;;;;;;;5035382;28;20029;-76
2022/06/04 08:40:29;;;;;;;12.35;3.17;;;;;;;;;;5032214;28;20075;-76
2022/06/04 08:43:08;;;;;;;13.05;2.45;;;;;;;;;;5021506;28;20145;-76
2022/06/04 08:45:36;;;;;;;11.73;3.15;;;;;;;;;;5034661;28;20705;-76
2022/06/04 08:48:02;;;;;;;10.85;3.15;;;;;;;;;;5019734;28;20030;-76
2022/06/04 08:50:34;;;;;;;10.80;2.33;;;;;;;;;;5034023;28;20084;-76
2022/06/04 08:53:01;;;;;;;8.38;2.17;;;;;;;;;;5032521;28;20366;-76
2022/06/04 08:58:19;;;;;;;12.90;2.53;;;;;;;;;;5023110;28;20491;-76
2022/06/04 09:00:54;;;;;;;13.25;2.75;;;;;;;;;;5021544;28;20030;-76
2022/06/04 09:03:27;;;;;;;11.48;2.67;;;;;;;;;;5031877;28;20037;-76
2022/06/04 09:06:11;;;;;;;8.43;2.05;;;;;;;;;;5028209;28;20513;-76
2022/06/04 09:08:51;;;;;;;8.07;1.98;;;;;;;;;;5026936;28;20692;-76
2022/06/04 09:11:20;;;;;;;16.45;2.45;;;;;;;;;;5032048;28;20132;-76
2022/06/04 09:14:06;;;;;;;10.95;2.67;;;;;;;;;;5034720;28;20075;-76
2022/06/04 09:16:35;;;;;;;9.93;2.58;;;;;;;;;;5025473;28;20116;-76
2022/06/04 09:19:02;;;;;;;12.35;2.92;;;;;;;;;;5034482;28;20468;-76
2022/06/04 09:21:32;;;;;;;13.73;3.05;;;;;;;;;;5033880;28;20432;-76
2022/06/04 09:23:59;;;;;;;12.23;2.45;;;;;;;;;;5031973;28;20025;-76
2022/06/04 09:26:33;;;;;;;9.52;2.40;;;;;;;;;;5023908;28;20033;-76
2022/06/04 09:29:17;;;;;;;17.08;3.67;;;;;;;;;;5018466;28;20040;-76
2022/06/04 09:32:10;;;;;;;14.73;3.13;;;;;;;;;;5029174;28;20030;-76
2022/06/04 09:34:37;;;;;;;10.88;2.17;;;;;;;;;;5024968;28;20088;-76
2022/06/04 09:37:07;;;;;;;8.68;2.08;;;;;;;;;;5027841;28;20533;-76
2022/06/04 09:39:35;;;;;;;9.75;2.42;;;;;;;;;;5037398;28;20029;-76
2022/06/04 09:42:20;;;;;;;13.82;2.78;;;;;;;;;;5034010;28;20071;-76
2022/06/04 09:44:50;;;;;;;11.48;2.42;;;;;;;;;;5042279;28;20121;-76
2022/06/04 09:47:18;;;;;;;10.37;2.27;;;;;;;;;;5028568;28;20026;-76
2022/06/04 09:49:50;;;;;;;13.32;2.50;;;;;;;;;;5022551;28;20056;-76
2022/06/04 09:52:25;;;;;;;9.40;2.72;;;;;;;;;;5028657;28;20033;-76
2022/06/04 09:55:03;;;;;;;8.45;2.05;;;;;;;;;;5028687;28;20034;-76
2022/06/04 09:57:31;;;;;;;10.25;2.35;;;;;;;;;;5027794;28;20029;-76
2022/06/04 09:59:58;;;;;;;12.00;2.17;;;;;;;;;;5023663;28;20018;-76
2022/06/04 10:02:25;;;;;;;11.85;2.00;;;;;;;;;;5025574;28;20033;-76
2022/06/04 10:04:59;;;;;;;10.02;2.65;;;;;;;;;;5024888;28;20493;-76
2022/06/04 10:07:35;;;;;;;14.80;2.58;;;;;;;;;;5027858;28;20044;-76
2022/06/04 10:10:13;;;;;;;10.68;2.25;;;;;;;;;;5029472;28;20080;-76
2022/06/04 10:15:36;;;;;;;14.65;2.60;;;;;;;;;;5017261;28;20056;-76
2022/06/04 10:18:22;;;;;;;13.05;2.83;;;;;;;;;;5026549;28;20046;-76
2022/06/04 10:21:15;;;;;;;14.05;2.50;;;;;;;;;;5021017;28;20056;-76
2022/06/04 10:23:42;;;;;;;9.82;2.47;;;;;;;;;;5022069;28;20033;-76
2022/06/04 10:26:17;;;;;;;11.48;2.83;;;;;;;;;;5020025;28;20049;-76
2022/06/04 10:29:02;;;;;;;11.15;3.17;;;;;;;;;;5016076;28;20029;-76
2022/06/04 10:31:34;;;;;;;10.57;3.00;;;;;;;;;;5031800;28;20041;-76
2022/06/04 10:34:06;;;;;;;10.90;2.63;;;;;;;;;;5021916;28;20052;-76
2022/06/04 10:36:50;;;;;;;11.60;3.20;;;;;;;;;;5028302;28;20057;-76
2022/06/04 10:39:22;;;;;;;12.07;2.50;;;;;;;;;;5033021;28;20025;-76
2022/06/04 10:41:52;;;;;;;13.05;3.17;;;;;;;;;;5032661;28;20037;-76
2022/06/04 10:44:44;;;;;;;11.13;2.50;;;;;;;;;;5032477;28;20055;-76
2022/06/04 10:47:43;;;;;;;10.45;2.60;;;;;;;;;;5019666;28;20053;-76
2022/06/04 10:50:12;;;;;;;18.05;2.90;;;;;;;;;;5010270;28;20099;-76
2022/06/04 10:52:44;;;;;;;13.30;2.88;;;;;;;;;;5026956;28;20026;-76
2022/06/04 10:55:21;;;;;;;9.02;2.40;;;;;;;;;;5029937;28;20061;-76
2022/06/04 10:57:53;;;;;;;10.40;2.53;;;;;;;;;;5030565;28;20029;-77
2022/06/04 11:00:21;;;;;;;12.05;2.88;;;;;;;;;;5032900;28;20025;-76
2022/06/04 11:03:05;;;;;;;9.55;2.50;;;;;;;;;;5031319;28;20025;-77
2022/06/04 11:05:40;;;;;;;11.73;2.65;;;;;;;;;;5019083;28;20077;-77
2022/06/04 11:08:18;;;;;;;10.60;3.28;;;;;;;;;;5023040;28;20036;-76
2022/06/04 11:10:46;;;;;;;11.85;2.80;;;;;;;;;;5025502;28;20030;-76
2022/06/04 11:13:18;;;;;;;9.68;2.55;;;;;;;;;;5030025;28;20209;-76
2022/06/04 11:15:44;;;;;;;;;;;;;;;;;;5025172;28;20033;-76
2022/06/04 11:18:22;;;;;;;15.80;2.72;;;;;;;;;;5026969;28;19916;-76
2022/06/04 11:20:54;;;;;;;9.93;2.22;;;;;;;;;;5026407;28;20029;-76
2022/06/04 11:23:36;;;;;;;9.18;2.60;;;;;;;;;;5023545;28;20038;-76
2022/06/04 11:26:02;;;;;;;;;;;;;;;;;;5025503;28;20041;-76
2022/06/04 11:28:30;;;;;;;9.75;2.50;;;;;;;;;;5022643;28;19956;-76
2022/06/04 11:31:09;;;;;;;11.73;2.65;;;;;;;;;;5014321;28;20077;-76
2022/06/04 11:33:35;;;;;;;9.95;2.20;;;;;;;;;;5023286;28;20037;-76
2022/06/04 11:36:08;;;;;;;11.82;2.42;;;;;;;;;;5034310;28;20032;-76
2022/06/04 11:38:36;;;;;;;9.25;2.40;;;;;;;;;;5035917;28;20132;-76
2022/06/04 11:41:07;;;;;;;9.57;2.22;;;;;;;;;;5023251;28;20025;-76
2022/06/04 11:43:56;;;;;;;14.77;2.65;;;;;;;;;;5020690;28;20060;-76
2022/06/04 11:46:41;;;;;;;11.15;2.42;;;;;;;;;;5030445;28;20423;-76
2022/06/04 11:49:37;;;;;;;11.93;2.60;;;;;;;;;;5022568;28;20060;-76
2022/06/04 11:52:03;;;;;;;13.93;2.58;;;;;;;;;;5008626;28;20050;-76
2022/06/04 11:54:41;;;;;;;8.10;2.40;;;;;;;;;;5032133;28;20505;-77
2022/06/04 11:57:19;;;;;;;12.48;2.58;;;;;;;;;;5020747;28;20034;-75
2022/06/04 11:59:51;;;;;;;11.38;2.42;;;;;;;;;;5022180;28;20046;-75
2022/06/04 12:02:28;;;;;;;14.82;2.65;;;;;;;;;;5026877;28;20077;-75
2022/06/04 12:05:06;;;;;;;14.55;3.03;;;;;;;;;;5016685;28;20034;-75
2022/06/04 12:07:37;;;;;;;19.23;2.63;;;;;;;;;;5024172;28;20131;-75
2022/06/04 12:10:07;;;;;;;17.75;2.72;;;;;;;;;;5031908;28;20041;-75
2022/06/04 12:12:33;;;;;;;16.15;2.58;;;;;;;;;;5020458;28;20033;-75
2022/06/04 12:15:08;;;;;;;18.17;3.08;;;;;;;;;;5031578;28;20409;-75
2022/06/04 12:17:43;;;;;;;18.23;2.70;;;;;;;;;;5026393;28;20034;-75
2022/06/04 12:26:18;;;;;;;14.63;3.05;;;;;;;;;;5017960;28;20044;-75
2022/06/04 12:28:44;;;;;;;15.80;2.97;;;;;;;;;;5019429;28;20805;-75
2022/06/04 12:31:10;;;;;;;15.05;2.92;;;;;;;;;;5027538;28;20059;-75
2022/06/04 12:33:39;;;;;;;15.02;2.53;;;;;;;;;;5030600;28;20038;-75
2022/06/04 12:36:08;;;;;;;17.15;2.75;;;;;;;;;;5023566;28;20041;-75
2022/06/04 12:38:39;;;;;;;13.38;2.55;;;;;;;;;;5024610;28;20029;-75
2022/06/04 12:41:05;;;;;;;16.17;2.50;;;;;;;;;;5026786;28;20030;-75
2022/06/04 12:43:33;;;;;;;14.23;2.58;;;;;;;;;;5029623;28;20147;-75
2022/06/04 12:46:07;;;;;;;14.85;2.20;;;;;;;;;;5030963;28;20423;-75
2022/06/04 12:48:38;;;;;;;15.75;2.92;;;;;;;;;;5024942;28;20084;-75
2022/06/04 12:51:12;;;;;;;11.50;2.20;;;;;;;;;;5023679;28;20475;-75
2022/06/04 12:53:54;;;;;;;13.27;2.97;;;;;;;;;;5030563;28;20045;-75
2022/06/04 12:56:20;;;;;;;;;;;;;;;;;;5022563;28;20115;-75
2022/06/04 12:58:51;;;;;;;18.13;3.58;;;;;;;;;;5025659;28;19945;-75
2022/06/04 13:01:18;;;;;;;14.80;2.67;;;;;;;;;;5028851;28;20503;-75
2022/06/04 13:03:45;;;;;;;15.50;2.80;;;;;;;;;;5030688;28;20037;-75
2022/06/04 13:06:14;;;;;;;18.23;3.17;;;;;;;;;;5029728;28;20034;-75
2022/06/04 13:08:58;;;;;;;12.88;2.65;;;;;;;;;;5025733;28;20038;-75
2022/06/04 13:11:43;;;;;;;15.48;3.00;;;;;;;;;;5027997;28;20060;-75
2022/06/04 13:14:28;;;;;;;21.90;3.08;;;;;;;;;;5022938;28;20455;-75
2022/06/04 13:16:58;;;;;;;17.77;3.17;;;;;;;;;;5023477;28;20033;-75
2022/06/04 13:19:33;;;;;;;15.83;3.50;;;;;;;;;;5034444;28;20227;-75
2022/06/04 13:22:00;;;;;;;23.20;3.40;;;;;;;;;;5033601;28;20899;-75
2022/06/04 13:24:28;;;;;;;13.52;3.08;;;;;;;;;;5027528;28;20034;-75
2022/06/04 13:27:02;;;;;;;15.02;2.50;;;;;;;;;;5032427;28;20030;-75
2022/06/04 13:29:29;;;;;;;12.85;3.10;;;;;;;;;;5026469;28;20037;-75
2022/06/04 13:31:57;;;;;;;17.17;2.75;;;;;;;;;;5029360;28;20108;-75
2022/06/04 13:34:24;;;;;;;19.65;3.25;;;;;;;;;;5015503;28;20061;-75
2022/06/04 13:36:59;;;;;;;22.08;3.17;;;;;;;;;;5031969;28;20026;-75
2022/06/04 13:39:27;;;;;;;18.85;3.53;;;;;;;;;;5033732;28;20060;-75
2022/06/04 13:42:06;;;;;;;19.33;2.72;;;;;;;;;;5025706;28;20022;-75
2022/06/04 13:44:40;;;;;;;13.68;3.45;;;;;;;;;;5032942;28;20108;-75
2022/06/04 13:47:06;;;;;;;17.75;2.70;;;;;;;;;;5020687;28;20033;-75
2022/06/04 13:49:32;;;;;;;20.33;3.30;;;;;;;;;;5026629;28;20045;-75
2022/06/04 13:52:03;;;;;;;20.02;3.92;;;;;;;;;;5032785;28;20033;-75
2022/06/04 13:54:34;;;;;;;16.60;2.85;;;;;;;;;;5021198;28;20633;-75
2022/06/04 13:57:03;;;;;;;20.92;3.38;;;;;;;;;;5031012;28;20478;-75
2022/06/04 13:59:40;;;;;;;20.92;3.53;;;;;;;;;;5029650;28;20383;-75
2022/06/04 14:02:11;;;;;;;17.65;2.83;;;;;;;;;;5027520;28;20026;-76
2022/06/04 14:07:31;;;;;;;27.42;3.42;;;;;;;;;;5023594;28;20129;-75
2022/06/04 14:09:57;;;;;;;18.83;3.05;;;;;;;;;;5026934;28;20038;-76
2022/06/04 14:12:32;;;;;;;16.92;2.58;;;;;;;;;;5032223;28;20060;-75
2022/06/04 14:15:13;;;;;;;19.25;3.00;;;;;;;;;;5023766;28;20120;-75
2022/06/04 14:18:00;;;;;;;21.65;3.25;;;;;;;;;;5029453;28;20025;-75
2022/06/04 14:20:26;;;;;;;15.00;2.85;;;;;;;;;;5023357;28;20521;-75
2022/06/04 14:23:12;;;;;;;16.33;3.10;;;;;;;;;;5029889;28;20057;-76
2022/06/04 14:25:41;;;;;;;21.00;2.97;;;;;;;;;;5028566;28;20041;-76
2022/06/04 14:28:26;;;;;;;16.67;4.32;;;;;;;;;;5032528;28;20038;-75
2022/06/04 14:31:11;;;;;;;20.83;4.35;;;;;;;;;;5030767;28;20037;-75
2022/06/04 14:33:38;;;;;;;16.85;2.92;;;;;;;;;;5023903;28;20067;-75
2022/06/04 14:36:06;;;;;;;16.80;2.65;;;;;;;;;;5032079;28;20171;-75
2022/06/04 14:38:35;;;;;;;22.65;3.33;;;;;;;;;;5032916;28;20037;-76
2022/06/04 14:41:16;;;;;;;15.05;3.63;;;;;;;;;;5031450;28;20025;-75
2022/06/04 14:43:42;;;;;;;13.93;3.25;;;;;;;;;;5032522;28;20038;-75
2022/06/04 14:46:11;;;;;;;17.48;3.05;;;;;;;;;;5021203;28;20040;-75
2022/06/04 14:48:37;;;;;;;17.30;3.42;;;;;;;;;;5025709;28;20112;-75
2022/06/04 14:51:22;;;;;;;14.05;3.08;;;;;;;;;;5022720;28;20113;-75
2022/06/04 14:53:49;;;;;;;25.80;3.10;;;;;;;;;;5031735;28;20044;-75
2022/06/04 14:56:43;;;;;;;14.88;2.80;;;;;;;;;;5029133;28;20029;-75
2022/06/04 14:59:25;;;;;;;18.05;3.35;;;;;;;;;;5014092;28;20037;-75
2022/06/04 15:01:51;;;;;;;;;;;;;;;;;;5031756;28;20025;-75
2022/06/04 15:04:38;;;;;;;22.10;3.15;;;;;;;;;;5026284;28;20699;-75
2022/06/04 15:07:20;;;;;;;19.27;3.10;;;;;;;;;;5024902;28;20030;-75
2022/06/04 15:09:52;;;;;;;21.33;3.90;;;;;;;;;;5030317;28;20038;-75
2022/06/04 15:12:21;;;;;;;18.27;3.28;;;;;;;;;;5028257;28;20025;-75
2022/06/04 15:15:07;;;;;;;19.50;3.65;;;;;;;;;;5031456;28;20041;-75
2022/06/04 15:17:37;;;;;;;18.38;3.38;;;;;;;;;;5016298;28;20014;-75